Portada
METAR-TAF:

METAR-TAF

Aeroports :

Claremore, Oklahoma, Estats Units d'Amèrica

latitud: 36-17-40N, longitud: 095-28-47W, altitud: 221 m

Observació

L'informe es va fer fa 26 minuts, a les 04:55 UTC
Vent 3 kt del Est
Temperatura 24°C
Humitat 100%
Pressió 1022 hPa
Visibilitat: 16.1 km
Núvols disperses a una alçada de 7500 ft

METAR: KGCM 200455Z AUTO 10003KT 10SM SCT075 24/24 A3018 RMK AO2 TSNO

Hora: 00:21 (05:21 UTC)


TAF: manca

Observacions i pronòstics meteorològics de més de 4000 aeroports (METAR i TAF).

Les estacions disponibles són els punts grocs i vermells al mapa.

Posi el ratolí al punt desitjat per veure el nom de l'estació.

Feu clic per veure les observacions i els pronòstics meteorològics.

Per canviar el mapa: feu clic els botons verds amb una creu de color negre per apropar; al botó verd amb un guió per allunyar la imatge; o en les fletxes verdes per a mapes adjacents.


METAR-TAF: